sensor_id;sensor_type;location;lat;lon;timestamp;pressure;altitude;pressure_sealevel;temperature;humidity
11712;BME280;5912;51.034;6.984;2023-03-22T00:01:59;56452.47;;;-142.13;56.55
11712;BME280;5912;51.034;6.984;2023-03-22T00:04:24;56440.47;;;-142.13;56.57
11712;BME280;5912;51.034;6.984;2023-03-22T00:06:50;56514.59;;;-142.13;57.01
11712;BME280;5912;51.034;6.984;2023-03-22T00:09:15;56486.53;;;-142.13;56.89
11712;BME280;5912;51.034;6.984;2023-03-22T00:11:41;56432.44;;;-142.13;56.43
11712;BME280;5912;51.034;6.984;2023-03-22T00:14:06;56444.47;;;-142.13;56.99
11712;BME280;5912;51.034;6.984;2023-03-22T00:16:32;56434.44;;;-142.13;56.96
11712;BME280;5912;51.034;6.984;2023-03-22T00:18:57;56448.47;;;-142.13;57.16
11712;BME280;5912;51.034;6.984;2023-03-22T00:21:22;56424.44;;;-142.13;57.10
11712;BME280;5912;51.034;6.984;2023-03-22T00:23:48;56434.44;;;-142.13;57.31
11712;BME280;5912;51.034;6.984;2023-03-22T00:26:14;56468.50;;;-142.13;57.36
11712;BME280;5912;51.034;6.984;2023-03-22T00:28:40;56448.47;;;-142.13;57.36
11712;BME280;5912;51.034;6.984;2023-03-22T00:31:06;56418.44;;;-142.13;57.37
11712;BME280;5912;51.034;6.984;2023-03-22T00:33:31;56454.47;;;-142.13;57.60
11712;BME280;5912;51.034;6.984;2023-03-22T00:36:02;56424.44;;;-142.13;57.64
11712;BME280;5912;51.034;6.984;2023-03-22T00:38:28;56440.47;;;-142.13;57.75
11712;BME280;5912;51.034;6.984;2023-03-22T00:41:14;56428.44;;;-142.13;57.65
11712;BME280;5912;51.034;6.984;2023-03-22T00:43:40;56444.47;;;-142.13;57.81
11712;BME280;5912;51.034;6.984;2023-03-22T00:46:07;56444.47;;;-142.13;57.72
11712;BME280;5912;51.034;6.984;2023-03-22T00:48:32;56452.47;;;-142.13;57.46
11712;BME280;5912;51.034;6.984;2023-03-22T00:50:57;56448.47;;;-142.13;58.43
11712;BME280;5912;51.034;6.984;2023-03-22T00:53:23;56460.50;;;-142.13;59.38
11712;BME280;5912;51.034;6.984;2023-03-22T00:55:48;56472.50;;;-142.13;59.66
11712;BME280;5912;51.034;6.984;2023-03-22T00:58:14;56476.53;;;-142.13;59.87
11712;BME280;5912;51.034;6.984;2023-03-22T01:00:39;56438.47;;;-142.13;59.91
11712;BME280;5912;51.034;6.984;2023-03-22T01:03:05;56456.50;;;-142.13;59.27
11712;BME280;5912;51.034;6.984;2023-03-22T01:05:31;56424.44;;;-142.13;58.66
11712;BME280;5912;51.034;6.984;2023-03-22T01:08:02;56460.50;;;-142.13;58.36
11712;BME280;5912;51.034;6.984;2023-03-22T01:10:36;56452.47;;;-142.13;58.22
11712;BME280;5912;51.034;6.984;2023-03-22T01:13:01;56470.50;;;-142.13;58.66
11712;BME280;5912;51.034;6.984;2023-03-22T01:15:51;56440.47;;;-142.13;58.79
11712;BME280;5912;51.034;6.984;2023-03-22T01:18:16;56460.50;;;-142.13;59.04
11712;BME280;5912;51.034;6.984;2023-03-22T01:20:42;56450.47;;;-142.13;59.39
11712;BME280;5912;51.034;6.984;2023-03-22T01:23:19;56428.44;;;-142.13;59.59
11712;BME280;5912;51.034;6.984;2023-03-22T01:25:45;56460.50;;;-142.13;60.11
11712;BME280;5912;51.034;6.984;2023-03-22T01:28:11;56472.50;;;-142.13;60.32
11712;BME280;5912;51.034;6.984;2023-03-22T01:30:38;56474.53;;;-142.13;60.53
11712;BME280;5912;51.034;6.984;2023-03-22T01:33:04;56476.53;;;-142.13;60.90
11712;BME280;5912;51.034;6.984;2023-03-22T01:35:32;56430.44;;;-142.13;61.13
11712;BME280;5912;51.034;6.984;2023-03-22T01:37:57;56470.50;;;-142.13;61.61
11712;BME280;5912;51.034;6.984;2023-03-22T01:40:22;56450.47;;;-142.13;61.30
11712;BME280;5912;51.034;6.984;2023-03-22T01:42:48;56496.56;;;-142.13;61.46
11712;BME280;5912;51.034;6.984;2023-03-22T01:47:40;56486.53;;;-142.13;61.60
11712;BME280;5912;51.034;6.984;2023-03-22T01:50:08;56482.53;;;-142.13;61.95
11712;BME280;5912;51.034;6.984;2023-03-22T01:52:34;56498.56;;;-142.13;62.43
11712;BME280;5912;51.034;6.984;2023-03-22T01:55:03;56484.53;;;-142.13;62.66
11712;BME280;5912;51.034;6.984;2023-03-22T01:57:30;56484.53;;;-142.13;63.25
11712;BME280;5912;51.034;6.984;2023-03-22T01:59:58;56482.53;;;-142.13;63.43
11712;BME280;5912;51.034;6.984;2023-03-22T02:02:25;56478.53;;;-142.13;63.63
11712;BME280;5912;51.034;6.984;2023-03-22T02:04:55;56592.72;;;-142.13;63.86
11712;BME280;5912;51.034;6.984;2023-03-22T02:07:22;56500.56;;;-142.13;64.10
11712;BME280;5912;51.034;6.984;2023-03-22T02:09:54;56496.56;;;-142.13;64.41
11712;BME280;5912;51.034;6.984;2023-03-22T02:12:57;56512.59;;;-142.13;64.56
11712;BME280;5912;51.034;6.984;2023-03-22T02:18:48;56496.56;;;-142.13;64.64
11712;BME280;5912;51.034;6.984;2023-03-22T02:29:42;56506.56;;;-142.13;65.58
11712;BME280;5912;51.034;6.984;2023-03-22T02:32:25;56520.59;;;-142.13;65.70
11712;BME280;5912;51.034;6.984;2023-03-22T02:41:00;56494.56;;;-142.13;66.24
11712;BME280;5912;51.034;6.984;2023-03-22T02:43:39;56494.56;;;-142.13;66.51
11712;BME280;5912;51.034;6.984;2023-03-22T02:49:02;56516.59;;;-142.13;66.73
11712;BME280;5912;51.034;6.984;2023-03-22T02:51:41;56520.59;;;-142.13;67.05
11712;BME280;5912;51.034;6.984;2023-03-22T02:54:32;56496.56;;;-142.13;67.16
11712;BME280;5912;51.034;6.984;2023-03-22T02:57:09;56496.56;;;-142.13;67.56
11712;BME280;5912;51.034;6.984;2023-03-22T02:59:39;56510.56;;;-142.13;67.53
11712;BME280;5912;51.034;6.984;2023-03-22T03:02:08;56516.59;;;-142.13;67.86
11712;BME280;5912;51.034;6.984;2023-03-22T03:04:39;56536.63;;;-142.13;67.78
11712;BME280;5912;51.034;6.984;2023-03-22T03:07:08;56516.59;;;-142.13;68.35
11712;BME280;5912;51.034;6.984;2023-03-22T03:09:39;56522.59;;;-142.13;68.44
11712;BME280;5912;51.034;6.984;2023-03-22T03:12:12;56540.63;;;-142.13;68.58
11712;BME280;5912;51.034;6.984;2023-03-22T03:14:37;56528.59;;;-142.13;68.75
11712;BME280;5912;51.034;6.984;2023-03-22T03:20:09;56524.59;;;-142.13;69.08
11712;BME280;5912;51.034;6.984;2023-03-22T03:23:22;56528.59;;;-142.13;69.32
11712;BME280;5912;51.034;6.984;2023-03-22T03:34:18;56538.63;;;-142.13;70.11
11712;BME280;5912;51.034;6.984;2023-03-22T03:37:03;56538.63;;;-142.13;70.03
11712;BME280;5912;51.034;6.984;2023-03-22T03:39:32;56510.56;;;-142.13;70.49
11712;BME280;5912;51.034;6.984;2023-03-22T03:42:11;56550.63;;;-142.13;70.77
11712;BME280;5912;51.034;6.984;2023-03-22T03:44:38;56560.66;;;-142.13;70.67
11712;BME280;5912;51.034;6.984;2023-03-22T03:47:06;56532.63;;;-142.13;71.00
11712;BME280;5912;51.034;6.984;2023-03-22T03:49:31;56518.59;;;-142.13;71.50
11712;BME280;5912;51.034;6.984;2023-03-22T03:51:58;56562.66;;;-142.13;71.23
11712;BME280;5912;51.034;6.984;2023-03-22T03:54:23;56538.63;;;-142.13;71.61
11712;BME280;5912;51.034;6.984;2023-03-22T03:56:49;56528.59;;;-142.13;71.98
11712;BME280;5912;51.034;6.984;2023-03-22T03:59:16;56560.66;;;-142.13;71.90
11712;BME280;5912;51.034;6.984;2023-03-22T04:01:44;56530.59;;;-142.13;71.61
11712;BME280;5912;51.034;6.984;2023-03-22T04:04:27;56536.63;;;-142.13;71.54
11712;BME280;5912;51.034;6.984;2023-03-22T04:06:58;56528.59;;;-142.13;71.23
11712;BME280;5912;51.034;6.984;2023-03-22T04:09:25;56548.63;;;-142.13;71.56
11712;BME280;5912;51.034;6.984;2023-03-22T04:11:52;56520.59;;;-142.13;71.40
11712;BME280;5912;51.034;6.984;2023-03-22T04:14:18;56518.59;;;-142.13;71.77
11712;BME280;5912;51.034;6.984;2023-03-22T04:16:43;56548.63;;;-142.13;71.93
11712;BME280;5912;51.034;6.984;2023-03-22T04:19:08;56534.63;;;-142.13;72.12
11712;BME280;5912;51.034;6.984;2023-03-22T04:21:34;56558.66;;;-142.13;72.35
11712;BME280;5912;51.034;6.984;2023-03-22T04:23:59;56576.69;;;-142.13;71.70
11712;BME280;5912;51.034;6.984;2023-03-22T04:26:25;56556.66;;;-142.13;71.77
11712;BME280;5912;51.034;6.984;2023-03-22T04:28:50;56528.59;;;-142.13;72.12
11712;BME280;5912;51.034;6.984;2023-03-22T04:31:15;56556.66;;;-142.13;72.56
11712;BME280;5912;51.034;6.984;2023-03-22T04:33:42;56540.63;;;-142.13;72.62
11712;BME280;5912;51.034;6.984;2023-03-22T04:36:11;56532.63;;;-142.13;72.54
11712;BME280;5912;51.034;6.984;2023-03-22T04:38:41;56576.69;;;-142.13;72.75
11712;BME280;5912;51.034;6.984;2023-03-22T04:41:06;56550.63;;;-142.13;72.40
11712;BME280;5912;51.034;6.984;2023-03-22T04:43:32;56606.75;;;-142.13;72.47
11712;BME280;5912;51.034;6.984;2023-03-22T04:46:00;56536.63;;;-142.13;72.37
11712;BME280;5912;51.034;6.984;2023-03-22T04:48:26;56534.63;;;-142.13;72.38
11712;BME280;5912;51.034;6.984;2023-03-22T04:50:52;56518.59;;;-142.13;72.19
11712;BME280;5912;51.034;6.984;2023-03-22T04:53:17;56508.56;;;-142.13;71.92
11712;BME280;5912;51.034;6.984;2023-03-22T04:55:43;56518.59;;;-142.13;71.91
11712;BME280;5912;51.034;6.984;2023-03-22T04:58:09;56528.59;;;-142.13;71.67
11712;BME280;5912;51.034;6.984;2023-03-22T05:00:35;56522.59;;;-142.13;71.56
11712;BME280;5912;51.034;6.984;2023-03-22T05:03:02;56520.59;;;-142.13;71.68
11712;BME280;5912;51.034;6.984;2023-03-22T05:05:28;56520.59;;;-142.13;71.59
11712;BME280;5912;51.034;6.984;2023-03-22T05:07:54;56524.59;;;-142.13;71.79
11712;BME280;5912;51.034;6.984;2023-03-22T05:10:20;56532.63;;;-142.13;71.66
11712;BME280;5912;51.034;6.984;2023-03-22T05:12:45;56564.66;;;-142.13;72.07
11712;BME280;5912;51.034;6.984;2023-03-22T05:15:11;56530.59;;;-142.13;71.98
11712;BME280;5912;51.034;6.984;2023-03-22T05:17:36;56556.66;;;-142.13;72.14
11712;BME280;5912;51.034;6.984;2023-03-22T05:20:02;56560.66;;;-142.13;72.10
11712;BME280;5912;51.034;6.984;2023-03-22T05:22:33;56538.63;;;-142.13;72.39
11712;BME280;5912;51.034;6.984;2023-03-22T05:25:23;56544.63;;;-142.13;72.01
11712;BME280;5912;51.034;6.984;2023-03-22T05:27:48;56540.63;;;-142.13;72.16
11712;BME280;5912;51.034;6.984;2023-03-22T05:30:15;56558.66;;;-142.13;72.35
11712;BME280;5912;51.034;6.984;2023-03-22T05:32:40;56536.63;;;-142.13;72.59
11712;BME280;5912;51.034;6.984;2023-03-22T05:35:08;56550.63;;;-142.13;72.19
11712;BME280;5912;51.034;6.984;2023-03-22T05:37:34;56528.59;;;-142.13;72.68
11712;BME280;5912;51.034;6.984;2023-03-22T05:40:00;56526.59;;;-142.13;72.25
11712;BME280;5912;51.034;6.984;2023-03-22T05:42:25;56562.66;;;-142.13;72.58
11712;BME280;5912;51.034;6.984;2023-03-22T05:44:51;56522.59;;;-142.13;72.75
11712;BME280;5912;51.034;6.984;2023-03-22T05:47:16;56524.59;;;-142.13;72.47
11712;BME280;5912;51.034;6.984;2023-03-22T05:49:41;56520.59;;;-142.13;72.17
11712;BME280;5912;51.034;6.984;2023-03-22T05:52:07;56530.59;;;-142.13;72.12
11712;BME280;5912;51.034;6.984;2023-03-22T05:54:33;56530.59;;;-142.13;72.03
11712;BME280;5912;51.034;6.984;2023-03-22T05:56:58;56556.66;;;-142.13;71.72
11712;BME280;5912;51.034;6.984;2023-03-22T05:59:23;56514.59;;;-142.13;71.44
11712;BME280;5912;51.034;6.984;2023-03-22T06:01:49;56546.63;;;-142.13;71.07
11712;BME280;5912;51.034;6.984;2023-03-22T06:04:15;56508.56;;;-142.13;70.59
11712;BME280;5912;51.034;6.984;2023-03-22T06:06:40;56526.59;;;-142.13;70.46
11712;BME280;5912;51.034;6.984;2023-03-22T06:09:06;56500.56;;;-142.13;70.39
11712;BME280;5912;51.034;6.984;2023-03-22T06:11:31;56494.56;;;-142.13;69.74
11712;BME280;5912;51.034;6.984;2023-03-22T06:13:59;56506.56;;;-142.13;69.27
11712;BME280;5912;51.034;6.984;2023-03-22T06:16:26;56460.50;;;-142.13;69.14
11712;BME280;5912;51.034;6.984;2023-03-22T06:18:52;56464.50;;;-142.13;68.92
11712;BME280;5912;51.034;6.984;2023-03-22T06:21:17;56506.56;;;-142.13;68.52
11712;BME280;5912;51.034;6.984;2023-03-22T06:23:43;56500.56;;;-142.13;68.28
11712;BME280;5912;51.034;6.984;2023-03-22T06:26:09;56496.56;;;-142.13;68.23
11712;BME280;5912;51.034;6.984;2023-03-22T06:28:37;56486.53;;;-142.13;67.70
11712;BME280;5912;51.034;6.984;2023-03-22T06:31:09;56484.53;;;-142.13;67.49
11712;BME280;5912;51.034;6.984;2023-03-22T06:33:35;56488.53;;;-142.13;67.42
11712;BME280;5912;51.034;6.984;2023-03-22T06:36:01;56474.53;;;-142.13;67.30
11712;BME280;5912;51.034;6.984;2023-03-22T06:38:27;56468.50;;;-142.13;67.19
11712;BME280;5912;51.034;6.984;2023-03-22T06:40:53;56486.53;;;-142.13;67.17
11712;BME280;5912;51.034;6.984;2023-03-22T06:43:18;56472.50;;;-142.13;66.94
11712;BME280;5912;51.034;6.984;2023-03-22T06:45:46;56460.50;;;-142.13;66.32
11712;BME280;5912;51.034;6.984;2023-03-22T06:48:12;56464.50;;;-142.13;65.91
11712;BME280;5912;51.034;6.984;2023-03-22T06:50:37;56432.44;;;-142.13;65.19
11712;BME280;5912;51.034;6.984;2023-03-22T06:53:04;56462.50;;;-142.13;64.42
11712;BME280;5912;51.034;6.984;2023-03-22T06:55:29;56442.47;;;-142.13;64.05
11712;BME280;5912;51.034;6.984;2023-03-22T06:58:01;56452.47;;;-142.13;63.06
11712;BME280;5912;51.034;6.984;2023-03-22T07:00:27;56428.44;;;-142.13;62.61
11712;BME280;5912;51.034;6.984;2023-03-22T07:02:53;56444.47;;;-142.13;62.35
11712;BME280;5912;51.034;6.984;2023-03-22T07:05:19;56456.50;;;-142.13;62.03
11712;BME280;5912;51.034;6.984;2023-03-22T07:07:44;56452.47;;;-142.13;61.16
11712;BME280;5912;51.034;6.984;2023-03-22T07:10:10;56424.44;;;-142.13;61.29
11712;BME280;5912;51.034;6.984;2023-03-22T07:12:36;56432.44;;;-142.13;61.48
11712;BME280;5912;51.034;6.984;2023-03-22T07:15:02;56426.44;;;-142.13;61.18
11712;BME280;5912;51.034;6.984;2023-03-22T07:17:28;56424.44;;;-142.13;61.44
11712;BME280;5912;51.034;6.984;2023-03-22T07:19:53;56452.47;;;-142.13;60.68
11712;BME280;5912;51.034;6.984;2023-03-22T07:22:18;56432.44;;;-142.13;60.60
11712;BME280;5912;51.034;6.984;2023-03-22T07:24:49;56412.41;;;-142.13;60.66
11712;BME280;5912;51.034;6.984;2023-03-22T07:27:15;56408.41;;;-142.13;59.83
11712;BME280;5912;51.034;6.984;2023-03-22T07:29:41;56412.41;;;-142.13;59.09
11712;BME280;5912;51.034;6.984;2023-03-22T07:32:06;56412.41;;;-142.13;58.45
11712;BME280;5912;51.034;6.984;2023-03-22T07:34:32;56374.34;;;-142.13;57.76
11712;BME280;5912;51.034;6.984;2023-03-22T07:36:57;56356.31;;;-142.13;55.54
11712;BME280;5912;51.034;6.984;2023-03-22T07:39:23;56372.34;;;-142.13;54.44
11712;BME280;5912;51.034;6.984;2023-03-22T07:41:53;56354.31;;;-142.13;53.85
11712;BME280;5912;51.034;6.984;2023-03-22T07:44:18;56332.28;;;-142.13;52.32
11712;BME280;5912;51.034;6.984;2023-03-22T07:46:43;56326.28;;;-142.13;50.61
11712;BME280;5912;51.034;6.984;2023-03-22T07:49:08;56308.25;;;-142.13;47.25
11712;BME280;5912;51.034;6.984;2023-03-22T07:51:34;56296.22;;;-142.13;45.43
11712;BME280;5912;51.034;6.984;2023-03-22T07:54:00;56296.22;;;-142.13;44.18
11712;BME280;5912;51.034;6.984;2023-03-22T07:56:26;56306.25;;;-142.13;43.96
11712;BME280;5912;51.034;6.984;2023-03-22T07:58:51;56312.25;;;-142.13;44.59
11712;BME280;5912;51.034;6.984;2023-03-22T08:01:17;56312.25;;;-142.13;45.97
11712;BME280;5912;51.034;6.984;2023-03-22T08:03:42;56336.28;;;-142.13;46.90
11712;BME280;5912;51.034;6.984;2023-03-22T08:06:07;56344.31;;;-142.13;47.83
11712;BME280;5912;51.034;6.984;2023-03-22T08:08:34;56332.28;;;-142.13;48.42
11712;BME280;5912;51.034;6.984;2023-03-22T08:11:01;56356.31;;;-142.13;48.57
11712;BME280;5912;51.034;6.984;2023-03-22T08:13:26;56362.34;;;-142.13;48.47
11712;BME280;5912;51.034;6.984;2023-03-22T08:15:51;56312.25;;;-142.13;47.76
11712;BME280;5912;51.034;6.984;2023-03-22T08:18:17;56320.28;;;-142.13;46.70
11712;BME280;5912;51.034;6.984;2023-03-22T08:20:42;56320.28;;;-142.13;45.74
11712;BME280;5912;51.034;6.984;2023-03-22T08:23:10;56348.31;;;-142.13;44.80
11712;BME280;5912;51.034;6.984;2023-03-22T08:25:40;56306.25;;;-142.13;44.05
11712;BME280;5912;51.034;6.984;2023-03-22T08:28:06;56286.22;;;-142.13;43.09
11712;BME280;5912;51.034;6.984;2023-03-22T08:30:31;56296.22;;;-142.13;42.60
11712;BME280;5912;51.034;6.984;2023-03-22T08:32:57;56272.19;;;-142.13;41.13
11712;BME280;5912;51.034;6.984;2023-03-22T08:35:22;56286.22;;;-142.13;41.46
11712;BME280;5912;51.034;6.984;2023-03-22T08:37:47;56262.19;;;-142.13;40.28
11712;BME280;5912;51.034;6.984;2023-03-22T08:40:13;56272.19;;;-142.13;39.58
11712;BME280;5912;51.034;6.984;2023-03-22T08:42:38;56274.19;;;-142.13;39.51
11712;BME280;5912;51.034;6.984;2023-03-22T08:45:04;56262.19;;;-142.13;39.24
11712;BME280;5912;51.034;6.984;2023-03-22T08:47:30;56256.16;;;-142.13;39.53
11712;BME280;5912;51.034;6.984;2023-03-22T08:49:55;56240.16;;;-142.13;38.88
11712;BME280;5912;51.034;6.984;2023-03-22T08:52:21;56208.09;;;-142.13;37.48
11712;BME280;5912;51.034;6.984;2023-03-22T08:54:46;56204.09;;;-142.13;36.63
11712;BME280;5912;51.034;6.984;2023-03-22T08:57:11;56208.09;;;-142.13;35.49
11712;BME280;5912;51.034;6.984;2023-03-22T08:59:38;56228.13;;;-142.13;36.35
11712;BME280;5912;51.034;6.984;2023-03-22T09:02:03;56210.09;;;-142.13;36.30
11712;BME280;5912;51.034;6.984;2023-03-22T09:04:29;56240.16;;;-142.13;37.61
11712;BME280;5912;51.034;6.984;2023-03-22T09:06:55;56230.13;;;-142.13;36.27
11712;BME280;5912;51.034;6.984;2023-03-22T09:09:20;56288.22;;;-142.13;36.41
11712;BME280;5912;51.034;6.984;2023-03-22T09:11:45;56284.22;;;-142.13;36.59
11712;BME280;5912;51.034;6.984;2023-03-22T09:14:11;56292.22;;;-142.13;37.55
11712;BME280;5912;51.034;6.984;2023-03-22T09:16:36;56294.22;;;-142.13;37.14
11712;BME280;5912;51.034;6.984;2023-03-22T09:19:02;56298.22;;;-142.13;37.23
11712;BME280;5912;51.034;6.984;2023-03-22T09:21:27;56274.19;;;-142.13;36.65
11712;BME280;5912;51.034;6.984;2023-03-22T09:23:56;56262.19;;;-142.13;36.38
11712;BME280;5912;51.034;6.984;2023-03-22T09:26:21;56234.13;;;-142.13;35.88
11712;BME280;5912;51.034;6.984;2023-03-22T09:28:47;56236.13;;;-142.13;35.52
11712;BME280;5912;51.034;6.984;2023-03-22T09:31:14;56252.16;;;-142.13;34.84
11712;BME280;5912;51.034;6.984;2023-03-22T09:33:39;56214.09;;;-142.13;35.71
11712;BME280;5912;51.034;6.984;2023-03-22T09:36:06;56238.13;;;-142.13;35.49
11712;BME280;5912;51.034;6.984;2023-03-22T09:38:34;56258.16;;;-142.13;34.87
11712;BME280;5912;51.034;6.984;2023-03-22T09:41:26;56242.16;;;-142.13;35.55
11712;BME280;5912;51.034;6.984;2023-03-22T09:43:58;56234.13;;;-142.13;34.70
11712;BME280;5912;51.034;6.984;2023-03-22T09:46:31;56226.13;;;-142.13;34.96
11712;BME280;5912;51.034;6.984;2023-03-22T09:49:00;56186.06;;;-142.13;34.25
11712;BME280;5912;51.034;6.984;2023-03-22T09:51:38;56190.06;;;-142.13;34.14
11712;BME280;5912;51.034;6.984;2023-03-22T09:54:11;56288.22;;;-142.13;33.77
11712;BME280;5912;51.034;6.984;2023-03-22T09:56:38;56160.03;;;-142.13;33.78
11712;BME280;5912;51.034;6.984;2023-03-22T09:59:12;56194.06;;;-142.13;33.51
11712;BME280;5912;51.034;6.984;2023-03-22T10:04:26;56178.03;;;-142.13;34.26
11712;BME280;5912;51.034;6.984;2023-03-22T10:10:13;56218.09;;;-142.13;35.14
11712;BME280;5912;51.034;6.984;2023-03-22T10:13:02;56228.13;;;-142.13;35.74
11712;BME280;5912;51.034;6.984;2023-03-22T10:15:41;56216.09;;;-142.13;35.59
11712;BME280;5912;51.034;6.984;2023-03-22T10:18:10;56236.13;;;-142.13;35.65
11712;BME280;5912;51.034;6.984;2023-03-22T10:21:01;56212.09;;;-142.13;34.43
11712;BME280;5912;51.034;6.984;2023-03-22T10:23:33;56172.03;;;-142.13;34.38
11712;BME280;5912;51.034;6.984;2023-03-22T10:26:00;56292.22;;;-142.13;33.72
11712;BME280;5912;51.034;6.984;2023-03-22T10:28:33;56150.00;;;-142.13;33.31
11712;BME280;5912;51.034;6.984;2023-03-22T10:31:00;56184.06;;;-142.13;32.36
11712;BME280;5912;51.034;6.984;2023-03-22T10:33:51;56160.03;;;-142.13;32.98
11712;BME280;5912;51.034;6.984;2023-03-22T10:36:21;56135.97;;;-142.13;32.26
11712;BME280;5912;51.034;6.984;2023-03-22T10:39:00;56148.00;;;-142.13;31.53
11712;BME280;5912;51.034;6.984;2023-03-22T10:41:28;56148.00;;;-142.13;32.48
11712;BME280;5912;51.034;6.984;2023-03-22T10:43:57;56164.03;;;-142.13;32.76
11712;BME280;5912;51.034;6.984;2023-03-22T10:46:26;56140.00;;;-142.13;32.36
11712;BME280;5912;51.034;6.984;2023-03-22T10:48:57;56194.06;;;-142.13;32.65
11712;BME280;5912;51.034;6.984;2023-03-22T10:51:28;56186.06;;;-142.13;32.90
11712;BME280;5912;51.034;6.984;2023-03-22T10:53:54;56288.22;;;-142.13;33.55
11712;BME280;5912;51.034;6.984;2023-03-22T10:56:22;56248.16;;;-142.13;34.28
11712;BME280;5912;51.034;6.984;2023-03-22T10:58:49;56532.63;;;-142.13;34.96
11712;BME280;5912;51.034;6.984;2023-03-22T11:01:35;56236.13;;;-142.13;35.52
11712;BME280;5912;51.034;6.984;2023-03-22T11:04:15;56236.13;;;-142.13;35.69
11712;BME280;5912;51.034;6.984;2023-03-22T11:06:51;56266.19;;;-142.13;35.73
11712;BME280;5912;51.034;6.984;2023-03-22T11:09:19;56262.19;;;-142.13;36.03
11712;BME280;5912;51.034;6.984;2023-03-22T11:11:55;56238.13;;;-142.13;35.53
11712;BME280;5912;51.034;6.984;2023-03-22T11:14:35;56270.19;;;-142.13;35.97
11712;BME280;5912;51.034;6.984;2023-03-22T11:19:35;56260.19;;;-142.13;35.86
11712;BME280;5912;51.034;6.984;2023-03-22T11:22:05;56280.22;;;-142.13;35.83
11712;BME280;5912;51.034;6.984;2023-03-22T11:24:32;56296.22;;;-142.13;36.10
11712;BME280;5912;51.034;6.984;2023-03-22T11:29:45;56292.22;;;-142.13;36.58
11712;BME280;5912;51.034;6.984;2023-03-22T11:32:27;56306.25;;;-142.13;36.32
11712;BME280;5912;51.034;6.984;2023-03-22T11:37:40;56294.22;;;-142.13;36.23
11712;BME280;5912;51.034;6.984;2023-03-22T11:40:16;56284.22;;;-142.13;36.39
11712;BME280;5912;51.034;6.984;2023-03-22T11:42:43;56296.22;;;-142.13;36.13
11712;BME280;5912;51.034;6.984;2023-03-22T11:45:14;56280.22;;;-142.13;36.64
11712;BME280;5912;51.034;6.984;2023-03-22T11:47:40;56312.25;;;-142.13;36.63
11712;BME280;5912;51.034;6.984;2023-03-22T11:50:07;56294.22;;;-142.13;36.29
11712;BME280;5912;51.034;6.984;2023-03-22T11:52:34;56292.22;;;-142.13;36.25
11712;BME280;5912;51.034;6.984;2023-03-22T11:55:00;56330.28;;;-142.13;36.87
11712;BME280;5912;51.034;6.984;2023-03-22T11:57:29;56304.25;;;-142.13;36.71
11712;BME280;5912;51.034;6.984;2023-03-22T12:00:01;56296.22;;;-142.13;36.66
11712;BME280;5912;51.034;6.984;2023-03-22T12:02:37;56322.28;;;-142.13;37.29
11712;BME280;5912;51.034;6.984;2023-03-22T12:05:14;56330.28;;;-142.13;37.38
11712;BME280;5912;51.034;6.984;2023-03-22T12:07:42;56320.28;;;-142.13;37.40
11712;BME280;5912;51.034;6.984;2023-03-22T12:12:43;56320.28;;;-142.13;37.46
11712;BME280;5912;51.034;6.984;2023-03-22T12:15:22;56292.22;;;-142.13;37.65
11712;BME280;5912;51.034;6.984;2023-03-22T12:17:57;56324.28;;;-142.13;37.84
11712;BME280;5912;51.034;6.984;2023-03-22T12:20:44;56326.28;;;-142.13;37.96
11712;BME280;5912;51.034;6.984;2023-03-22T12:23:22;56336.28;;;-142.13;37.71
11712;BME280;5912;51.034;6.984;2023-03-22T12:25:56;56312.25;;;-142.13;38.10
11712;BME280;5912;51.034;6.984;2023-03-22T12:28:29;56312.25;;;-142.13;38.34
11712;BME280;5912;51.034;6.984;2023-03-22T12:30:57;56328.28;;;-142.13;38.19
11712;BME280;5912;51.034;6.984;2023-03-22T12:33:27;56338.31;;;-142.13;38.90
11712;BME280;5912;51.034;6.984;2023-03-22T12:36:00;56368.34;;;-142.13;39.08
11712;BME280;5912;51.034;6.984;2023-03-22T12:38:45;56368.34;;;-142.13;38.93
11712;BME280;5912;51.034;6.984;2023-03-22T12:41:33;56336.28;;;-142.13;39.27
11712;BME280;5912;51.034;6.984;2023-03-22T12:44:09;56324.28;;;-142.13;39.52
11712;BME280;5912;51.034;6.984;2023-03-22T12:46:52;56340.31;;;-142.13;39.34
11712;BME280;5912;51.034;6.984;2023-03-22T12:54:38;56330.28;;;-142.13;39.70
11712;BME280;5912;51.034;6.984;2023-03-22T12:57:05;56354.31;;;-142.13;39.82
11712;BME280;5912;51.034;6.984;2023-03-22T12:59:31;56348.31;;;-142.13;39.84
11712;BME280;5912;51.034;6.984;2023-03-22T13:02:02;56344.31;;;-142.13;39.70
11712;BME280;5912;51.034;6.984;2023-03-22T13:09:38;56332.28;;;-142.13;40.88
11712;BME280;5912;51.034;6.984;2023-03-22T13:18:00;56376.34;;;-142.13;42.02
11712;BME280;5912;51.034;6.984;2023-03-22T13:27:52;56376.34;;;-142.13;42.46
11712;BME280;5912;51.034;6.984;2023-03-22T13:32:48;56338.31;;;-142.13;42.88
11712;BME280;5912;51.034;6.984;2023-03-22T13:35:23;56372.34;;;-142.13;43.10
11712;BME280;5912;51.034;6.984;2023-03-22T13:37:51;56392.38;;;-142.13;43.51
11712;BME280;5912;51.034;6.984;2023-03-22T13:40:32;56396.41;;;-142.13;44.11
11712;BME280;5912;51.034;6.984;2023-03-22T13:43:22;56360.34;;;-142.13;43.87
11712;BME280;5912;51.034;6.984;2023-03-22T13:48:51;56360.34;;;-142.13;43.17
11712;BME280;5912;51.034;6.984;2023-03-22T14:04:55;56368.34;;;-142.13;43.20
11712;BME280;5912;51.034;6.984;2023-03-22T14:10:13;56344.31;;;-142.13;42.79
11712;BME280;5912;51.034;6.984;2023-03-22T14:15:24;56380.38;;;-142.13;42.88
11712;BME280;5912;51.034;6.984;2023-03-22T14:18:07;56364.34;;;-142.13;42.86
11712;BME280;5912;51.034;6.984;2023-03-22T14:20:37;56360.34;;;-142.13;42.92
11712;BME280;5912;51.034;6.984;2023-03-22T14:23:26;56352.31;;;-142.13;43.00
11712;BME280;5912;51.034;6.984;2023-03-22T14:25:56;56380.38;;;-142.13;43.05
11712;BME280;5912;51.034;6.984;2023-03-22T14:28:32;56332.28;;;-142.13;42.81
11712;BME280;5912;51.034;6.984;2023-03-22T14:30:58;56346.31;;;-142.13;42.57
11712;BME280;5912;51.034;6.984;2023-03-22T14:33:23;56380.38;;;-142.13;43.04
11712;BME280;5912;51.034;6.984;2023-03-22T14:35:57;56352.31;;;-142.13;43.05
11712;BME280;5912;51.034;6.984;2023-03-22T14:38:30;56364.34;;;-142.13;43.44
11712;BME280;5912;51.034;6.984;2023-03-22T14:41:23;56322.28;;;-142.13;42.98